Time,TemperatureF,DewpointF,PressureIn,WindDirection,WindDirectionDegrees,WindSpeedMPH,WindSpeedGustMPH,Humidity,HourlyPrecipIn,Conditions,Clouds,dailyrainin,SoftwareType,DateUTC
2013-02-09 00:00:00,28.3,26.3,30.34,North,11,0.0,0.0,92,0.00,,BKN055,0.09,VWS V14.00,2013-02-09 05:00:00,
2013-02-09 00:10:00,28.2,26.2,30.34,North,10,0.0,0.0,92,0.00,,BKN055,0.00,VWS V14.00,2013-02-09 05:10:00,
2013-02-09 00:20:00,28.1,26.1,30.34,North,11,2.0,2.0,92,0.00,,BKN055,0.00,VWS V14.00,2013-02-09 05:20:00,
2013-02-09 00:30:00,27.9,25.9,30.34,North,10,1.0,3.0,92,0.00,,BKN055,0.00,VWS V14.00,2013-02-09 05:30:00,
2013-02-09 00:40:00,27.2,25.2,30.35,North,11,2.0,3.0,92,0.00,,BKN055,0.00,VWS V14.00,2013-02-09 05:40:00,
2013-02-09 00:50:00,26.7,25.0,30.35,NNW,334,2.0,3.0,93,0.00,,BKN055,0.00,VWS V14.00,2013-02-09 05:50:00,
2013-02-09 01:00:00,26.5,24.8,30.35,NNW,335,2.0,3.0,93,0.00,,BKN055,0.00,VWS V14.00,2013-02-09 06:00:00,
2013-02-09 01:10:00,26.4,24.9,30.35,NNW,334,3.0,3.0,94,0.00,,BKN055,0.00,VWS V14.00,2013-02-09 06:10:00,
2013-02-09 01:20:00,26.4,24.9,30.35,NNW,332,3.0,5.0,94,0.00,,BKN055,0.00,VWS V14.00,2013-02-09 06:20:00,
2013-02-09 01:30:00,26.7,25.5,30.35,NNW,330,4.0,5.0,95,0.00,,BKN055,0.00,VWS V14.00,2013-02-09 06:30:00,
2013-02-09 01:40:00,26.7,25.2,30.35,NNW,337,3.0,5.0,94,0.00,,BKN055,0.00,VWS V14.00,2013-02-09 06:40:00,
2013-02-09 01:50:00,26.4,24.9,30.35,NW,326,3.0,5.0,94,0.00,,BKN055,0.00,VWS V14.00,2013-02-09 06:50:00,
2013-02-09 02:00:00,26.0,24.5,30.34,NNW,333,4.0,5.0,94,0.00,,BKN055,0.00,VWS V14.00,2013-02-09 07:00:00,
2013-02-09 02:10:00,25.8,24.3,30.36,NNW,329,3.0,4.0,94,0.00,,BKN055,0.00,VWS V14.00,2013-02-09 07:10:00,
2013-02-09 02:20:00,26.0,24.5,30.36,NW,317,4.0,5.0,94,0.00,,BKN055,0.00,VWS V14.00,2013-02-09 07:20:00,
2013-02-09 02:30:00,25.6,24.1,30.36,NNW,340,4.0,5.0,94,0.00,,BKN055,0.00,VWS V14.00,2013-02-09 07:30:00,
2013-02-09 02:40:00,25.5,24.0,30.37,NNW,329,4.0,6.0,94,0.00,,BKN055,0.00,VWS V14.00,2013-02-09 07:40:00,
2013-02-09 02:50:00,25.5,24.0,30.37,NW,319,3.0,6.0,94,0.00,,BKN055,0.00,VWS V14.00,2013-02-09 07:50:00,
2013-02-09 03:00:00,25.2,23.7,30.37,NNW,333,4.0,6.0,94,0.00,,BKN055,0.00,VWS V14.00,2013-02-09 08:00:00,
2013-02-09 03:10:00,25.0,23.5,30.37,NW,313,5.0,5.0,94,0.00,,BKN055,0.00,VWS V14.00,2013-02-09 08:10:00,
2013-02-09 03:20:00,24.8,23.3,30.37,NNW,333,3.0,5.0,94,0.00,,BKN055,0.00,VWS V14.00,2013-02-09 08:20:00,
2013-02-09 03:30:00,24.7,23.5,30.38,NW,322,2.0,5.0,95,0.00,,BKN055,0.00,VWS V14.00,2013-02-09 08:30:00,
2013-02-09 03:40:00,24.5,23.3,30.37,NNW,334,2.0,5.0,95,0.00,,BKN055,0.00,VWS V14.00,2013-02-09 08:40:00,
2013-02-09 03:50:00,24.2,22.7,30.38,NNW,340,2.0,4.0,94,0.00,,BKN055,0.00,VWS V14.00,2013-02-09 08:50:00,
2013-02-09 04:00:00,23.9,22.4,30.37,NNW,346,0.0,2.0,94,0.00,,BKN055,0.00,VWS V14.00,2013-02-09 09:00:00,
2013-02-09 04:10:00,24.1,22.9,30.36,NNW,346,0.0,3.0,95,0.00,,BKN055,0.00,VWS V14.00,2013-02-09 09:10:00,
2013-02-09 04:20:00,24.1,22.9,30.37,NW,307,3.0,4.0,95,0.00,,BKN055,0.00,VWS V14.00,2013-02-09 09:20:00,
2013-02-09 04:30:00,23.8,22.6,30.37,NNW,331,0.0,4.0,95,0.00,,BKN055,0.00,VWS V14.00,2013-02-09 09:30:00,
2013-02-09 04:40:00,23.5,22.0,30.36,NNW,339,2.0,4.0,94,0.00,,BKN055,0.00,VWS V14.00,2013-02-09 09:40:00,
2013-02-09 04:50:00,23.2,21.7,30.37,NNW,337,3.0,4.0,94,0.00,,BKN055,0.00,VWS V14.00,2013-02-09 09:50:00,
2013-02-09 05:00:00,23.1,21.9,30.37,NNW,335,3.0,4.0,95,0.00,,BKN055,0.00,VWS V14.00,2013-02-09 10:00:00,
2013-02-09 05:10:00,22.9,21.7,30.37,NNW,337,2.0,4.0,95,0.00,,BKN055,0.00,VWS V14.00,2013-02-09 10:10:00,
2013-02-09 05:20:00,22.7,21.2,30.38,NNW,329,2.0,4.0,94,0.00,,BKN055,0.00,VWS V14.00,2013-02-09 10:20:00,
2013-02-09 05:30:00,22.4,20.9,30.38,NNW,336,2.0,3.0,94,0.00,,BKN055,0.00,VWS V14.00,2013-02-09 10:30:00,
2013-02-09 05:40:00,22.3,20.8,30.38,NW,326,3.0,4.0,94,0.00,,BKN055,0.00,VWS V14.00,2013-02-09 10:40:00,
2013-02-09 05:50:00,22.2,21.0,30.38,NNW,327,3.0,5.0,95,0.00,,BKN055,0.00,VWS V14.00,2013-02-09 10:50:00,
2013-02-09 06:00:00,22.2,21.0,30.38,NNW,336,5.0,5.0,95,0.00,,BKN055,0.00,VWS V14.00,2013-02-09 11:00:00,
2013-02-09 06:10:00,22.0,20.8,30.39,NNW,336,4.0,6.0,95,0.00,,BKN055,0.00,VWS V14.00,2013-02-09 11:10:00,
2013-02-09 06:20:00,21.8,20.3,30.39,NNW,343,4.0,6.0,94,0.00,,BKN055,0.00,VWS V14.00,2013-02-09 11:20:00,
2013-02-09 06:30:00,21.6,20.1,30.40,NNW,332,3.0,4.0,94,0.00,,BKN055,0.00,VWS V14.00,2013-02-09 11:30:00,
2013-02-09 06:40:00,21.3,19.9,30.40,NNW,328,2.0,4.0,94,0.00,,BKN055,0.00,VWS V14.00,2013-02-09 11:40:00,
2013-02-09 06:50:00,21.3,19.9,30.40,NNW,327,2.0,5.0,94,0.00,,BKN055,0.00,VWS V14.00,2013-02-09 11:50:00,
2013-02-09 07:00:00,21.1,19.6,30.41,NNW,327,3.0,5.0,94,0.00,,BKN055,0.00,VWS V14.00,2013-02-09 12:00:00,
2013-02-09 07:10:00,20.9,19.5,30.41,NNW,342,3.0,5.0,94,0.00,,BKN055,0.00,VWS V14.00,2013-02-09 12:10:00,
2013-02-09 07:20:00,20.7,19.2,30.41,NNW,330,3.0,4.0,94,0.00,,BKN055,0.00,VWS V14.00,2013-02-09 12:20:00,
2013-02-09 07:30:00,20.4,19.0,30.40,NNW,336,3.0,4.0,94,0.00,,BKN055,0.00,VWS V14.00,2013-02-09 12:30:00,
2013-02-09 07:40:00,20.4,19.0,30.41,NNW,336,2.0,4.0,94,0.00,,BKN055,0.00,VWS V14.00,2013-02-09 12:40:00,
2013-02-09 07:50:00,20.2,18.8,30.41,NNW,328,3.0,4.0,94,0.00,,BKN055,0.00,VWS V14.00,2013-02-09 12:50:00,
2013-02-09 08:00:00,20.3,18.9,30.42,NNW,329,2.0,4.0,94,0.00,,BKN055,0.00,VWS V14.00,2013-02-09 13:00:00,
2013-02-09 08:10:00,20.5,19.0,30.43,NNW,340,3.0,4.0,94,0.00,,BKN055,0.00,VWS V14.00,2013-02-09 13:10:00,
2013-02-09 08:20:00,20.8,19.4,30.43,NNW,344,2.0,4.0,94,0.00,,BKN055,0.00,VWS V14.00,2013-02-09 13:20:00,
2013-02-09 08:30:00,21.3,19.9,30.43,North,349,3.0,5.0,94,0.00,,BKN055,0.00,VWS V14.00,2013-02-09 13:30:00,
2013-02-09 08:40:00,21.8,20.3,30.43,NNW,348,4.0,5.0,94,0.00,,BKN055,0.00,VWS V14.00,2013-02-09 13:40:00,
2013-02-09 08:50:00,22.4,20.9,30.43,NNW,344,4.0,4.0,94,0.00,,BKN055,0.00,VWS V14.00,2013-02-09 13:50:00,
2013-02-09 09:00:00,23.3,21.8,30.44,North,355,2.0,4.0,94,0.00,,BKN055,0.00,VWS V14.00,2013-02-09 14:00:00,
2013-02-09 09:10:00,24.8,23.6,30.44,North,350,3.0,3.0,95,0.00,,BKN055,0.00,VWS V14.00,2013-02-09 14:10:00,
2013-02-09 09:20:00,26.3,25.1,30.43,North,355,2.0,4.0,95,0.00,,BKN055,0.00,VWS V14.00,2013-02-09 14:20:00,
2013-02-09 09:30:00,28.0,26.0,30.43,ENE,68,1.0,3.0,92,0.00,,BKN055,0.00,VWS V14.00,2013-02-09 14:30:00,
2013-02-09 09:40:00,30.0,24.9,30.42,ENE,60,5.0,7.0,81,0.00,,BKN055,0.00,VWS V14.00,2013-02-09 14:40:00,
2013-02-09 09:50:00,30.9,24.9,30.42,NE,53,4.0,8.0,78,0.00,,BKN055,0.00,VWS V14.00,2013-02-09 14:50:00,
2013-02-09 10:00:00,31.5,24.8,30.41,East,91,2.0,7.0,76,0.00,,BKN055,0.00,VWS V14.00,2013-02-09 15:00:00,
2013-02-09 10:10:00,32.2,25.5,30.42,East,96,3.0,7.0,76,0.00,,BKN055,0.00,VWS V14.00,2013-02-09 15:10:00,
2013-02-09 10:20:00,32.2,25.2,30.42,ENE,61,3.0,10.0,75,0.00,,BKN055,0.00,VWS V14.00,2013-02-09 15:20:00,
2013-02-09 10:30:00,32.4,25.0,30.42,ENE,63,3.0,10.0,74,0.00,,BKN055,0.00,VWS V14.00,2013-02-09 15:30:00,
2013-02-09 10:40:00,32.7,26.0,30.42,ENE,63,3.0,7.0,76,0.00,,BKN055,0.00,VWS V14.00,2013-02-09 15:40:00,
2013-02-09 10:50:00,33.3,25.9,30.42,ENE,57,4.0,5.0,74,0.00,,BKN055,0.00,VWS V14.00,2013-02-09 15:50:00,
2013-02-09 11:00:00,33.5,26.4,30.42,NE,38,4.0,10.0,75,0.00,,BKN055,0.00,VWS V14.00,2013-02-09 16:00:00,
2013-02-09 11:10:00,34.3,25.9,30.41,ENE,60,4.0,6.0,71,0.00,,BKN055,0.00,VWS V14.00,2013-02-09 16:10:00,
2013-02-09 11:20:00,34.4,25.6,30.42,East,95,1.0,7.0,70,0.00,,BKN055,0.00,VWS V14.00,2013-02-09 16:20:00,
2013-02-09 11:30:00,35.1,25.6,30.41,ENE,59,6.0,6.0,68,0.00,,BKN055,0.00,VWS V14.00,2013-02-09 16:30:00,
2013-02-09 11:40:00,35.3,26.2,30.41,NE,51,4.0,6.0,69,0.00,,BKN055,0.00,VWS V14.00,2013-02-09 16:40:00,
2013-02-09 11:50:00,35.6,25.7,30.41,ENE,59,9.0,10.0,67,0.00,,BKN055,0.00,VWS V14.00,2013-02-09 16:50:00,
2013-02-09 12:00:00,36.2,26.0,30.40,SE,125,2.0,9.0,66,0.00,,BKN055,0.00,VWS V14.00,2013-02-09 17:00:00,
2013-02-09 12:10:00,36.7,25.3,30.40,ENE,76,3.0,7.0,63,0.00,,BKN055,0.00,VWS V14.00,2013-02-09 17:10:00,
2013-02-09 12:20:00,37.6,26.9,30.40,East,98,5.0,6.0,65,0.00,,BKN055,0.00,VWS V14.00,2013-02-09 17:20:00,
2013-02-09 12:30:00,37.6,26.2,30.40,ENE,76,2.0,6.0,63,0.00,,BKN055,0.00,VWS V14.00,2013-02-09 17:30:00,
2013-02-09 12:40:00,38.0,26.1,30.39,North,360,3.0,5.0,62,0.00,,BKN055,0.00,VWS V14.00,2013-02-09 17:40:00,
2013-02-09 12:50:00,38.5,26.6,30.39,ENE,67,3.0,5.0,62,0.00,,BKN055,0.00,VWS V14.00,2013-02-09 17:50:00,
2013-02-09 13:00:00,38.9,26.2,30.38,NE,56,4.0,7.0,60,0.00,,BKN055,0.00,VWS V14.00,2013-02-09 18:00:00,
2013-02-09 13:10:00,39.3,26.2,30.38,ESE,119,0.0,6.0,59,0.00,,BKN055,0.00,VWS V14.00,2013-02-09 18:10:00,
2013-02-09 13:20:00,39.5,25.1,30.38,NE,38,0.0,7.0,56,0.00,,BKN055,0.00,VWS V14.00,2013-02-09 18:20:00,
2013-02-09 13:30:00,39.8,26.2,30.37,ENE,67,0.0,4.0,58,0.00,,BKN055,0.00,VWS V14.00,2013-02-09 18:30:00,
2013-02-09 13:40:00,40.5,26.0,30.36,East,101,0.0,5.0,56,0.00,,BKN055,0.00,VWS V14.00,2013-02-09 18:40:00,
2013-02-09 13:50:00,40.6,26.1,30.35,East,89,3.0,6.0,56,0.00,,BKN055,0.00,VWS V14.00,2013-02-09 18:50:00,
2013-02-09 14:00:00,40.9,26.0,30.35,ENE,69,0.0,7.0,55,0.00,,BKN055,0.00,VWS V14.00,2013-02-09 19:00:00,
2013-02-09 14:10:00,41.1,26.6,30.34,ENE,75,3.0,5.0,56,0.00,,BKN055,0.00,VWS V14.00,2013-02-09 19:10:00,
2013-02-09 14:20:00,41.6,25.8,30.33,ENE,59,3.0,5.0,53,0.00,,BKN055,0.00,VWS V14.00,2013-02-09 19:20:00,
2013-02-09 14:30:00,41.7,26.7,30.33,NE,52,4.0,6.0,55,0.00,,BKN055,0.00,VWS V14.00,2013-02-09 19:30:00,
2013-02-09 14:40:00,42.4,28.3,30.32,East,96,2.0,5.0,57,0.00,,BKN055,0.00,VWS V14.00,2013-02-09 19:40:00,
2013-02-09 14:50:00,42.7,26.3,30.32,NNE,31,4.0,6.0,52,0.00,,BKN055,0.00,VWS V14.00,2013-02-09 19:50:00,
2013-02-09 15:00:00,42.9,27.0,30.32,ENE,70,3.0,7.0,53,0.00,,BKN055,0.00,VWS V14.00,2013-02-09 20:00:00,
2013-02-09 15:10:00,43.2,26.3,30.32,ENE,65,2.0,6.0,51,0.00,,BKN055,0.00,VWS V14.00,2013-02-09 20:10:00,
2013-02-09 15:20:00,43.4,27.9,30.31,ENE,61,2.0,8.0,54,0.00,,BKN055,0.00,VWS V14.00,2013-02-09 20:20:00,
2013-02-09 15:30:00,43.5,26.1,30.31,East,83,2.0,7.0,50,0.00,,BKN055,0.00,VWS V14.00,2013-02-09 20:30:00,
2013-02-09 15:40:00,44.0,26.6,30.31,NE,52,5.0,7.0,50,0.00,,BKN055,0.00,VWS V14.00,2013-02-09 20:40:00,
2013-02-09 15:50:00,44.5,26.5,30.31,NE,46,4.0,9.0,49,0.00,,BKN055,0.00,VWS V14.00,2013-02-09 20:50:00,
2013-02-09 16:00:00,44.8,27.8,30.31,East,88,0.0,5.0,51,0.00,,BKN055,0.00,VWS V14.00,2013-02-09 21:00:00,
2013-02-09 16:10:00,44.4,26.9,30.30,ENE,77,4.0,5.0,50,0.00,,BKN055,0.00,VWS V14.00,2013-02-09 21:10:00,
2013-02-09 16:20:00,45.0,28.0,30.30,East,81,4.0,6.0,51,0.00,,BKN055,0.00,VWS V14.00,2013-02-09 21:20:00,
2013-02-09 16:30:00,44.9,25.9,30.30,ENE,69,3.0,6.0,47,0.00,,BKN055,0.00,VWS V14.00,2013-02-09 21:30:00,
2013-02-09 16:40:00,44.9,26.9,30.30,SE,141,0.0,4.0,49,0.00,,BKN055,0.00,VWS V14.00,2013-02-09 21:40:00,
2013-02-09 16:50:00,44.7,27.7,30.29,ENE,75,0.0,5.0,51,0.00,,BKN055,0.00,VWS V14.00,2013-02-09 21:50:00,
2013-02-09 17:00:00,44.5,26.0,30.29,ENE,67,3.0,6.0,48,0.00,,BKN055,0.00,VWS V14.00,2013-02-09 22:00:00,
2013-02-09 17:10:00,44.1,27.1,30.29,ENE,59,0.0,5.0,51,0.00,,BKN055,0.00,VWS V14.00,2013-02-09 22:10:00,
2013-02-09 17:20:00,43.7,26.8,30.29,ENE,68,0.0,0.0,51,0.00,,BKN055,0.00,VWS V14.00,2013-02-09 22:20:00,
2013-02-09 17:30:00,43.5,27.5,30.28,ENE,73,0.0,1.0,53,0.00,,BKN055,0.00,VWS V14.00,2013-02-09 22:30:00,
2013-02-09 17:40:00,42.9,27.0,30.28,ENE,74,0.0,2.0,53,0.00,,BKN055,0.00,VWS V14.00,2013-02-09 22:40:00,
2013-02-09 17:50:00,42.5,27.0,30.28,ENE,74,0.0,1.0,54,0.00,,BKN055,0.00,VWS V14.00,2013-02-09 22:50:00,
2013-02-09 18:00:00,41.7,26.3,30.28,ENE,71,0.0,0.0,54,0.00,,BKN055,0.00,VWS V14.00,2013-02-09 23:00:00,
2013-02-09 18:10:00,40.8,25.9,30.28,ENE,71,2.0,2.0,55,0.00,,BKN055,0.00,VWS V14.00,2013-02-09 23:10:00,
2013-02-09 18:20:00,40.3,25.9,30.27,ENE,71,0.0,2.0,56,0.00,,BKN055,0.00,VWS V14.00,2013-02-09 23:20:00,
2013-02-09 18:30:00,40.2,26.2,30.27,ENE,69,0.0,3.0,57,0.00,,BKN055,0.00,VWS V14.00,2013-02-09 23:30:00,
2013-02-09 18:40:00,39.8,25.4,30.27,ENE,68,0.0,2.0,56,0.00,,BKN055,0.00,VWS V14.00,2013-02-09 23:40:00,
2013-02-09 18:50:00,39.1,25.2,30.27,ENE,68,0.0,1.0,57,0.00,,BKN055,0.00,VWS V14.00,2013-02-09 23:50:00,
2013-02-09 19:00:00,38.3,24.4,30.28,ENE,68,0.0,1.0,57,0.00,,BKN055,0.00,VWS V14.00,2013-02-10 00:00:00,
2013-02-09 19:10:00,37.4,24.0,30.28,ENE,68,0.0,1.0,58,0.00,,BKN055,0.00,VWS V14.00,2013-02-10 00:10:00,
2013-02-09 19:20:00,37.4,24.8,30.28,ENE,68,0.0,0.0,60,0.00,,BKN055,0.00,VWS V14.00,2013-02-10 00:20:00,
2013-02-09 19:30:00,36.7,24.5,30.28,ENE,57,0.0,2.0,61,0.00,,BKN055,0.00,VWS V14.00,2013-02-10 00:30:00,
2013-02-09 19:40:00,35.2,24.3,30.27,NE,56,0.0,0.0,64,0.00,,BKN055,0.00,VWS V14.00,2013-02-10 00:40:00,
2013-02-09 19:50:00,32.9,25.5,30.26,NE,56,2.0,2.0,74,0.00,,BKN055,0.00,VWS V14.00,2013-02-10 00:50:00,
2013-02-09 20:00:00,31.4,25.0,30.26,NE,56,0.0,3.0,77,0.00,,BKN055,0.00,VWS V14.00,2013-02-10 01:00:00,
2013-02-09 20:10:00,30.5,25.4,30.26,NE,55,0.0,0.0,81,0.00,,BKN055,0.00,VWS V14.00,2013-02-10 01:10:00,
2013-02-09 20:20:00,29.9,24.8,30.26,NNE,21,3.0,3.0,81,0.00,,BKN055,0.00,VWS V14.00,2013-02-10 01:20:00,
2013-02-09 20:30:00,29.4,24.6,30.26,NNE,16,1.0,3.0,82,0.00,,BKN055,0.00,VWS V14.00,2013-02-10 01:30:00,
2013-02-09 20:40:00,29.1,24.6,30.26,North,355,4.0,4.0,83,0.00,,BKN055,0.00,VWS V14.00,2013-02-10 01:40:00,
2013-02-09 20:50:00,29.0,24.5,30.25,North,355,3.0,4.0,83,0.00,,BKN055,0.00,VWS V14.00,2013-02-10 01:50:00,
2013-02-09 21:00:00,28.8,24.3,30.26,North,355,0.0,3.0,83,0.00,,BKN055,0.00,VWS V14.00,2013-02-10 02:00:00,
2013-02-09 21:10:00,28.5,24.3,30.25,NNW,344,2.0,4.0,84,0.00,,BKN055,0.00,VWS V14.00,2013-02-10 02:10:00,
2013-02-09 21:20:00,28.5,24.3,30.25,NNW,344,3.0,5.0,84,0.00,,BKN055,0.00,VWS V14.00,2013-02-10 02:20:00,
2013-02-09 21:30:00,27.9,23.7,30.25,NNW,344,3.0,4.0,84,0.00,,BKN055,0.00,VWS V14.00,2013-02-10 02:30:00,
2013-02-09 21:40:00,27.9,23.7,30.26,NNW,344,2.0,4.0,84,0.00,,BKN055,0.00,VWS V14.00,2013-02-10 02:40:00,
2013-02-09 21:50:00,27.7,23.8,30.26,NNW,344,4.0,4.0,85,0.00,,BKN055,0.00,VWS V14.00,2013-02-10 02:50:00,
2013-02-09 22:00:00,27.4,23.8,30.25,NNW,341,2.0,4.0,86,0.00,,BKN055,0.00,VWS V14.00,2013-02-10 03:00:00,
2013-02-09 22:10:00,27.4,23.8,30.25,NNW,340,2.0,4.0,86,0.00,,BKN055,0.00,VWS V14.00,2013-02-10 03:10:00,
2013-02-09 22:20:00,27.6,24.0,30.25,NNW,341,3.0,4.0,86,0.00,,BKN055,0.00,VWS V14.00,2013-02-10 03:20:00,
2013-02-09 22:30:00,27.3,23.7,30.25,NNW,343,3.0,5.0,86,0.00,,BKN055,0.00,VWS V14.00,2013-02-10 03:30:00,
2013-02-09 22:40:00,27.1,23.8,30.25,NNW,336,4.0,5.0,87,0.00,,BKN055,0.00,VWS V14.00,2013-02-10 03:40:00,
2013-02-09 22:50:00,27.2,23.9,30.24,NNW,340,4.0,5.0,87,0.00,,BKN055,0.00,VWS V14.00,2013-02-10 03:50:00,
2013-02-09 23:00:00,27.5,23.9,30.23,NW,323,4.0,5.0,86,0.00,,BKN055,0.00,VWS V14.00,2013-02-10 04:00:00,
2013-02-09 23:10:00,27.6,24.2,30.23,NNW,336,4.0,5.0,87,0.00,,BKN055,0.00,VWS V14.00,2013-02-10 04:10:00,
2013-02-09 23:20:00,27.4,23.8,30.23,NNW,341,3.0,4.0,86,0.00,,BKN055,0.00,VWS V14.00,2013-02-10 04:20:00,
2013-02-09 23:30:00,27.2,23.6,30.23,NNW,340,4.0,4.0,86,0.00,,BKN055,0.00,VWS V14.00,2013-02-10 04:30:00,
2013-02-09 23:40:00,27.1,23.8,30.22,NNW,340,3.0,4.0,87,0.00,,BKN055,0.00,VWS V14.00,2013-02-10 04:40:00,
2013-02-09 23:50:00,27.0,23.6,30.22,NNW,344,3.0,4.0,87,0.00,,BKN055,0.00,VWS V14.00,2013-02-10 04:50:00,